sensor_id;sensor_type;location;lat;lon;timestamp;P1;durP1;ratioP1;P2;durP2;ratioP2
7162;SDS011;3623;47.098;15.446;2022-12-18T00:02:21;11.00;;;7.05;;
7162;SDS011;3623;47.098;15.446;2022-12-18T00:04:48;11.02;;;8.13;;
7162;SDS011;3623;47.098;15.446;2022-12-18T00:07:15;10.65;;;7.38;;
7162;SDS011;3623;47.098;15.446;2022-12-18T00:09:42;7.95;;;7.20;;
7162;SDS011;3623;47.098;15.446;2022-12-18T00:12:10;11.32;;;7.50;;
7162;SDS011;3623;47.098;15.446;2022-12-18T00:14:38;10.52;;;7.50;;
7162;SDS011;3623;47.098;15.446;2022-12-18T00:17:05;7.78;;;7.03;;
7162;SDS011;3623;47.098;15.446;2022-12-18T00:19:32;11.05;;;7.78;;
7162;SDS011;3623;47.098;15.446;2022-12-18T00:21:59;9.18;;;5.68;;
7162;SDS011;3623;47.098;15.446;2022-12-18T00:24:26;9.52;;;7.55;;
7162;SDS011;3623;47.098;15.446;2022-12-18T00:26:53;7.03;;;6.38;;
7162;SDS011;3623;47.098;15.446;2022-12-18T00:29:21;7.68;;;5.85;;
7162;SDS011;3623;47.098;15.446;2022-12-18T00:31:49;7.57;;;6.10;;
7162;SDS011;3623;47.098;15.446;2022-12-18T00:34:16;7.93;;;6.18;;
7162;SDS011;3623;47.098;15.446;2022-12-18T00:36:43;8.18;;;6.13;;
7162;SDS011;3623;47.098;15.446;2022-12-18T00:39:13;10.10;;;7.05;;
7162;SDS011;3623;47.098;15.446;2022-12-18T00:41:40;8.57;;;5.97;;
7162;SDS011;3623;47.098;15.446;2022-12-18T00:44:25;7.43;;;6.65;;
7162;SDS011;3623;47.098;15.446;2022-12-18T00:46:53;8.60;;;7.20;;
7162;SDS011;3623;47.098;15.446;2022-12-18T00:49:20;6.30;;;5.63;;
7162;SDS011;3623;47.098;15.446;2022-12-18T00:51:48;6.43;;;5.80;;
7162;SDS011;3623;47.098;15.446;2022-12-18T00:54:15;6.80;;;5.57;;
7162;SDS011;3623;47.098;15.446;2022-12-18T00:56:43;9.82;;;6.25;;
7162;SDS011;3623;47.098;15.446;2022-12-18T00:59:10;6.43;;;5.82;;
7162;SDS011;3623;47.098;15.446;2022-12-18T01:01:37;10.88;;;5.93;;
7162;SDS011;3623;47.098;15.446;2022-12-18T01:04:05;10.93;;;6.97;;
7162;SDS011;3623;47.098;15.446;2022-12-18T01:06:33;6.85;;;5.80;;
7162;SDS011;3623;47.098;15.446;2022-12-18T01:09:00;7.38;;;5.70;;
7162;SDS011;3623;47.098;15.446;2022-12-18T01:11:27;10.23;;;6.82;;
7162;SDS011;3623;47.098;15.446;2022-12-18T01:13:54;5.95;;;5.45;;
7162;SDS011;3623;47.098;15.446;2022-12-18T01:16:24;5.97;;;5.38;;
7162;SDS011;3623;47.098;15.446;2022-12-18T01:18:52;7.07;;;5.97;;
7162;SDS011;3623;47.098;15.446;2022-12-18T01:21:21;6.65;;;5.90;;
7162;SDS011;3623;47.098;15.446;2022-12-18T01:23:51;7.03;;;6.32;;
7162;SDS011;3623;47.098;15.446;2022-12-18T01:26:19;10.27;;;6.40;;
7162;SDS011;3623;47.098;15.446;2022-12-18T01:28:46;6.28;;;5.25;;
7162;SDS011;3623;47.098;15.446;2022-12-18T01:31:15;9.35;;;6.35;;
7162;SDS011;3623;47.098;15.446;2022-12-18T01:33:44;5.70;;;4.68;;
7162;SDS011;3623;47.098;15.446;2022-12-18T01:36:15;6.97;;;6.28;;
7162;SDS011;3623;47.098;15.446;2022-12-18T01:38:44;8.25;;;6.40;;
7162;SDS011;3623;47.098;15.446;2022-12-18T01:41:12;8.27;;;7.10;;
7162;SDS011;3623;47.098;15.446;2022-12-18T01:43:43;7.70;;;5.38;;
7162;SDS011;3623;47.098;15.446;2022-12-18T01:46:19;7.22;;;5.43;;
7162;SDS011;3623;47.098;15.446;2022-12-18T01:48:50;6.97;;;5.95;;
7162;SDS011;3623;47.098;15.446;2022-12-18T01:51:19;6.75;;;6.15;;
7162;SDS011;3623;47.098;15.446;2022-12-18T01:53:48;6.20;;;5.55;;
7162;SDS011;3623;47.098;15.446;2022-12-18T01:56:17;8.20;;;5.88;;
7162;SDS011;3623;47.098;15.446;2022-12-18T01:58:48;6.82;;;6.13;;
7162;SDS011;3623;47.098;15.446;2022-12-18T02:01:21;7.68;;;5.38;;
7162;SDS011;3623;47.098;15.446;2022-12-18T02:03:50;5.75;;;5.18;;
7162;SDS011;3623;47.098;15.446;2022-12-18T02:06:19;5.25;;;4.70;;
7162;SDS011;3623;47.098;15.446;2022-12-18T02:08:57;6.07;;;5.43;;
7162;SDS011;3623;47.098;15.446;2022-12-18T02:11:33;6.68;;;5.90;;
7162;SDS011;3623;47.098;15.446;2022-12-18T02:14:10;6.53;;;5.93;;
7162;SDS011;3623;47.098;15.446;2022-12-18T02:16:44;11.77;;;7.00;;
7162;SDS011;3623;47.098;15.446;2022-12-18T02:19:27;7.25;;;6.00;;
7162;SDS011;3623;47.098;15.446;2022-12-18T02:22:10;6.80;;;6.05;;
7162;SDS011;3623;47.098;15.446;2022-12-18T02:24:52;6.43;;;5.60;;
7162;SDS011;3623;47.098;15.446;2022-12-18T02:27:27;6.45;;;5.20;;
7162;SDS011;3623;47.098;15.446;2022-12-18T02:29:59;8.70;;;6.05;;
7162;SDS011;3623;47.098;15.446;2022-12-18T02:32:27;5.82;;;5.25;;
7162;SDS011;3623;47.098;15.446;2022-12-18T02:34:57;8.85;;;5.70;;
7162;SDS011;3623;47.098;15.446;2022-12-18T02:37:25;8.93;;;6.40;;
7162;SDS011;3623;47.098;15.446;2022-12-18T02:39:54;6.05;;;5.55;;
7162;SDS011;3623;47.098;15.446;2022-12-18T02:42:23;8.93;;;5.57;;
7162;SDS011;3623;47.098;15.446;2022-12-18T02:44:52;5.63;;;5.13;;
7162;SDS011;3623;47.098;15.446;2022-12-18T02:47:22;7.25;;;6.25;;
7162;SDS011;3623;47.098;15.446;2022-12-18T02:49:58;7.50;;;5.53;;
7162;SDS011;3623;47.098;15.446;2022-12-18T02:52:38;7.53;;;5.72;;
7162;SDS011;3623;47.098;15.446;2022-12-18T02:55:23;7.60;;;7.00;;
7162;SDS011;3623;47.098;15.446;2022-12-18T02:57:58;9.65;;;6.05;;
7162;SDS011;3623;47.098;15.446;2022-12-18T03:00:33;6.60;;;5.90;;
7162;SDS011;3623;47.098;15.446;2022-12-18T03:03:07;6.53;;;5.25;;
7162;SDS011;3623;47.098;15.446;2022-12-18T03:05:41;7.00;;;6.03;;
7162;SDS011;3623;47.098;15.446;2022-12-18T03:08:18;9.18;;;5.70;;
7162;SDS011;3623;47.098;15.446;2022-12-18T03:10:49;5.72;;;5.00;;
7162;SDS011;3623;47.098;15.446;2022-12-18T03:13:20;6.70;;;5.40;;
7162;SDS011;3623;47.098;15.446;2022-12-18T03:15:56;7.15;;;5.32;;
7162;SDS011;3623;47.098;15.446;2022-12-18T03:18:25;5.03;;;4.63;;
7162;SDS011;3623;47.098;15.446;2022-12-18T03:20:57;6.55;;;5.95;;
7162;SDS011;3623;47.098;15.446;2022-12-18T03:23:27;6.38;;;5.65;;
7162;SDS011;3623;47.098;15.446;2022-12-18T03:25:59;6.78;;;5.75;;
7162;SDS011;3623;47.098;15.446;2022-12-18T03:28:30;5.75;;;5.20;;
7162;SDS011;3623;47.098;15.446;2022-12-18T03:31:02;7.65;;;6.78;;
7162;SDS011;3623;47.098;15.446;2022-12-18T03:33:34;7.60;;;5.75;;
7162;SDS011;3623;47.098;15.446;2022-12-18T03:36:05;10.75;;;5.20;;
7162;SDS011;3623;47.098;15.446;2022-12-18T03:38:33;5.05;;;4.57;;
7162;SDS011;3623;47.098;15.446;2022-12-18T03:41:02;5.18;;;4.57;;
7162;SDS011;3623;47.098;15.446;2022-12-18T03:43:39;8.05;;;6.32;;
7162;SDS011;3623;47.098;15.446;2022-12-18T03:46:15;8.68;;;6.45;;
7162;SDS011;3623;47.098;15.446;2022-12-18T03:48:50;11.15;;;6.68;;
7162;SDS011;3623;47.098;15.446;2022-12-18T03:51:23;5.32;;;4.28;;
7162;SDS011;3623;47.098;15.446;2022-12-18T03:53:55;6.38;;;5.20;;
7162;SDS011;3623;47.098;15.446;2022-12-18T03:56:25;9.30;;;6.65;;
7162;SDS011;3623;47.098;15.446;2022-12-18T03:58:55;9.25;;;6.53;;
7162;SDS011;3623;47.098;15.446;2022-12-18T04:01:26;8.20;;;6.63;;
7162;SDS011;3623;47.098;15.446;2022-12-18T04:03:58;9.85;;;6.60;;
7162;SDS011;3623;47.098;15.446;2022-12-18T04:06:27;8.05;;;6.10;;
7162;SDS011;3623;47.098;15.446;2022-12-18T04:08:56;7.82;;;6.40;;
7162;SDS011;3623;47.098;15.446;2022-12-18T04:11:24;7.28;;;6.13;;
7162;SDS011;3623;47.098;15.446;2022-12-18T04:13:52;17.45;;;6.75;;
7162;SDS011;3623;47.098;15.446;2022-12-18T04:16:22;8.52;;;5.82;;
7162;SDS011;3623;47.098;15.446;2022-12-18T04:18:51;6.10;;;5.50;;
7162;SDS011;3623;47.098;15.446;2022-12-18T04:21:18;9.30;;;5.15;;
7162;SDS011;3623;47.098;15.446;2022-12-18T04:23:46;7.38;;;5.60;;
7162;SDS011;3623;47.098;15.446;2022-12-18T04:26:13;9.48;;;5.53;;
7162;SDS011;3623;47.098;15.446;2022-12-18T04:28:40;5.95;;;5.35;;
7162;SDS011;3623;47.098;15.446;2022-12-18T04:31:07;5.80;;;5.25;;
7162;SDS011;3623;47.098;15.446;2022-12-18T04:33:34;7.53;;;6.68;;
7162;SDS011;3623;47.098;15.446;2022-12-18T04:36:03;6.78;;;5.43;;
7162;SDS011;3623;47.098;15.446;2022-12-18T04:38:31;7.75;;;5.85;;
7162;SDS011;3623;47.098;15.446;2022-12-18T04:40:58;6.75;;;6.03;;
7162;SDS011;3623;47.098;15.446;2022-12-18T04:43:25;6.72;;;6.03;;
7162;SDS011;3623;47.098;15.446;2022-12-18T04:45:52;6.53;;;5.93;;
7162;SDS011;3623;47.098;15.446;2022-12-18T04:48:20;6.53;;;5.50;;
7162;SDS011;3623;47.098;15.446;2022-12-18T04:50:47;6.20;;;5.38;;
7162;SDS011;3623;47.098;15.446;2022-12-18T04:53:15;5.40;;;4.90;;
7162;SDS011;3623;47.098;15.446;2022-12-18T04:55:42;8.52;;;6.85;;
7162;SDS011;3623;47.098;15.446;2022-12-18T04:58:10;8.38;;;5.28;;
7162;SDS011;3623;47.098;15.446;2022-12-18T05:00:37;7.07;;;6.05;;
7162;SDS011;3623;47.098;15.446;2022-12-18T05:03:04;6.50;;;5.90;;
7162;SDS011;3623;47.098;15.446;2022-12-18T05:05:31;9.27;;;5.78;;
7162;SDS011;3623;47.098;15.446;2022-12-18T05:08:00;13.02;;;6.72;;
7162;SDS011;3623;47.098;15.446;2022-12-18T05:10:29;7.55;;;6.43;;
7162;SDS011;3623;47.098;15.446;2022-12-18T05:12:56;8.40;;;6.32;;
7162;SDS011;3623;47.098;15.446;2022-12-18T05:15:27;8.75;;;6.28;;
7162;SDS011;3623;47.098;15.446;2022-12-18T05:17:54;7.40;;;6.63;;
7162;SDS011;3623;47.098;15.446;2022-12-18T05:20:22;8.65;;;6.32;;
7162;SDS011;3623;47.098;15.446;2022-12-18T05:22:49;7.95;;;5.90;;
7162;SDS011;3623;47.098;15.446;2022-12-18T05:25:16;7.10;;;6.40;;
7162;SDS011;3623;47.098;15.446;2022-12-18T05:27:45;9.40;;;7.50;;
7162;SDS011;3623;47.098;15.446;2022-12-18T05:30:13;10.55;;;7.55;;
7162;SDS011;3623;47.098;15.446;2022-12-18T05:32:41;9.23;;;7.22;;
7162;SDS011;3623;47.098;15.446;2022-12-18T05:35:09;12.25;;;8.88;;
7162;SDS011;3623;47.098;15.446;2022-12-18T05:37:37;10.70;;;8.70;;
7162;SDS011;3623;47.098;15.446;2022-12-18T05:40:04;6.97;;;6.22;;
7162;SDS011;3623;47.098;15.446;2022-12-18T05:42:32;6.93;;;6.22;;
7162;SDS011;3623;47.098;15.446;2022-12-18T05:45:01;6.63;;;5.82;;
7162;SDS011;3623;47.098;15.446;2022-12-18T05:47:28;6.85;;;5.88;;
7162;SDS011;3623;47.098;15.446;2022-12-18T05:49:56;8.05;;;7.35;;
7162;SDS011;3623;47.098;15.446;2022-12-18T05:52:23;7.80;;;7.03;;
7162;SDS011;3623;47.098;15.446;2022-12-18T05:54:50;10.93;;;7.05;;
7162;SDS011;3623;47.098;15.446;2022-12-18T05:57:17;9.77;;;6.68;;
7162;SDS011;3623;47.098;15.446;2022-12-18T05:59:44;8.63;;;7.20;;
7162;SDS011;3623;47.098;15.446;2022-12-18T06:02:13;7.53;;;6.40;;
7162;SDS011;3623;47.098;15.446;2022-12-18T06:04:40;7.97;;;7.13;;
7162;SDS011;3623;47.098;15.446;2022-12-18T06:07:07;9.35;;;6.25;;
7162;SDS011;3623;47.098;15.446;2022-12-18T06:09:34;7.40;;;5.88;;
7162;SDS011;3623;47.098;15.446;2022-12-18T06:12:01;11.18;;;7.40;;
7162;SDS011;3623;47.098;15.446;2022-12-18T06:14:28;8.15;;;6.90;;
7162;SDS011;3623;47.098;15.446;2022-12-18T06:16:55;10.43;;;6.90;;
7162;SDS011;3623;47.098;15.446;2022-12-18T06:19:24;7.15;;;6.38;;
7162;SDS011;3623;47.098;15.446;2022-12-18T06:21:51;12.02;;;6.75;;
7162;SDS011;3623;47.098;15.446;2022-12-18T06:24:18;9.15;;;7.80;;
7162;SDS011;3623;47.098;15.446;2022-12-18T06:26:45;6.90;;;6.20;;
7162;SDS011;3623;47.098;15.446;2022-12-18T06:29:12;10.27;;;7.70;;
7162;SDS011;3623;47.098;15.446;2022-12-18T06:31:39;10.00;;;6.72;;
7162;SDS011;3623;47.098;15.446;2022-12-18T06:34:06;11.80;;;6.95;;
7162;SDS011;3623;47.098;15.446;2022-12-18T06:36:35;6.68;;;6.15;;
7162;SDS011;3623;47.098;15.446;2022-12-18T06:39:02;8.10;;;6.40;;
7162;SDS011;3623;47.098;15.446;2022-12-18T06:41:29;10.73;;;7.45;;
7162;SDS011;3623;47.098;15.446;2022-12-18T06:43:57;8.32;;;7.03;;
7162;SDS011;3623;47.098;15.446;2022-12-18T06:46:24;11.02;;;8.50;;
7162;SDS011;3623;47.098;15.446;2022-12-18T06:48:51;9.20;;;7.07;;
7162;SDS011;3623;47.098;15.446;2022-12-18T06:51:19;11.77;;;7.40;;
7162;SDS011;3623;47.098;15.446;2022-12-18T06:53:49;9.63;;;7.10;;
7162;SDS011;3623;47.098;15.446;2022-12-18T06:56:16;7.70;;;6.88;;
7162;SDS011;3623;47.098;15.446;2022-12-18T06:58:43;6.20;;;5.65;;
7162;SDS011;3623;47.098;15.446;2022-12-18T07:01:10;6.63;;;6.03;;
7162;SDS011;3623;47.098;15.446;2022-12-18T07:03:39;9.33;;;6.50;;
7162;SDS011;3623;47.098;15.446;2022-12-18T07:06:12;8.07;;;6.85;;
7162;SDS011;3623;47.098;15.446;2022-12-18T07:08:41;11.05;;;7.05;;
7162;SDS011;3623;47.098;15.446;2022-12-18T07:11:10;8.52;;;6.75;;
7162;SDS011;3623;47.098;15.446;2022-12-18T07:13:37;10.48;;;7.45;;
7162;SDS011;3623;47.098;15.446;2022-12-18T07:16:05;11.38;;;7.20;;
7162;SDS011;3623;47.098;15.446;2022-12-18T07:18:34;11.68;;;6.80;;
7162;SDS011;3623;47.098;15.446;2022-12-18T07:21:04;9.98;;;8.68;;
7162;SDS011;3623;47.098;15.446;2022-12-18T07:23:33;9.60;;;6.90;;
7162;SDS011;3623;47.098;15.446;2022-12-18T07:26:01;9.35;;;8.07;;
7162;SDS011;3623;47.098;15.446;2022-12-18T07:28:30;11.65;;;8.35;;
7162;SDS011;3623;47.098;15.446;2022-12-18T07:30:58;9.50;;;7.78;;
7162;SDS011;3623;47.098;15.446;2022-12-18T07:33:28;10.70;;;8.70;;
7162;SDS011;3623;47.098;15.446;2022-12-18T07:35:55;19.17;;;12.43;;
7162;SDS011;3623;47.098;15.446;2022-12-18T07:38:22;15.80;;;11.60;;
7162;SDS011;3623;47.098;15.446;2022-12-18T07:40:49;15.45;;;9.30;;
7162;SDS011;3623;47.098;15.446;2022-12-18T07:43:16;10.90;;;9.70;;
7162;SDS011;3623;47.098;15.446;2022-12-18T07:45:45;15.52;;;10.73;;
7162;SDS011;3623;47.098;15.446;2022-12-18T07:48:15;10.70;;;8.45;;
7162;SDS011;3623;47.098;15.446;2022-12-18T07:50:42;10.77;;;8.38;;
7162;SDS011;3623;47.098;15.446;2022-12-18T07:53:09;13.88;;;10.13;;
7162;SDS011;3623;47.098;15.446;2022-12-18T07:55:36;10.88;;;7.90;;
7162;SDS011;3623;47.098;15.446;2022-12-18T07:58:03;13.27;;;8.85;;
7162;SDS011;3623;47.098;15.446;2022-12-18T08:00:30;11.48;;;7.70;;
7162;SDS011;3623;47.098;15.446;2022-12-18T08:02:59;10.00;;;8.07;;
7162;SDS011;3623;47.098;15.446;2022-12-18T08:05:26;10.00;;;8.50;;
7162;SDS011;3623;47.098;15.446;2022-12-18T08:07:54;12.15;;;9.25;;
7162;SDS011;3623;47.098;15.446;2022-12-18T08:10:21;12.65;;;9.75;;
7162;SDS011;3623;47.098;15.446;2022-12-18T08:12:49;13.20;;;10.48;;
7162;SDS011;3623;47.098;15.446;2022-12-18T08:15:16;11.55;;;8.30;;
7162;SDS011;3623;47.098;15.446;2022-12-18T08:17:44;11.90;;;7.75;;
7162;SDS011;3623;47.098;15.446;2022-12-18T08:20:12;8.52;;;6.97;;
7162;SDS011;3623;47.098;15.446;2022-12-18T08:22:40;11.07;;;9.00;;
7162;SDS011;3623;47.098;15.446;2022-12-18T08:25:07;12.30;;;8.20;;
7162;SDS011;3623;47.098;15.446;2022-12-18T08:27:35;8.02;;;7.28;;
7162;SDS011;3623;47.098;15.446;2022-12-18T08:30:03;10.80;;;8.48;;
7162;SDS011;3623;47.098;15.446;2022-12-18T08:32:30;9.27;;;8.25;;
7162;SDS011;3623;47.098;15.446;2022-12-18T08:34:59;8.73;;;7.85;;
7162;SDS011;3623;47.098;15.446;2022-12-18T08:37:27;9.80;;;8.55;;
7162;SDS011;3623;47.098;15.446;2022-12-18T08:39:54;9.20;;;8.25;;
7162;SDS011;3623;47.098;15.446;2022-12-18T08:42:21;8.05;;;6.38;;
7162;SDS011;3623;47.098;15.446;2022-12-18T08:45:06;8.27;;;6.95;;
7162;SDS011;3623;47.098;15.446;2022-12-18T08:47:34;8.57;;;6.93;;
7162;SDS011;3623;47.098;15.446;2022-12-18T08:50:01;11.95;;;8.45;;
7162;SDS011;3623;47.098;15.446;2022-12-18T08:52:30;7.68;;;6.97;;
7162;SDS011;3623;47.098;15.446;2022-12-18T08:54:58;10.32;;;8.20;;
7162;SDS011;3623;47.098;15.446;2022-12-18T08:57:25;7.75;;;6.28;;
7162;SDS011;3623;47.098;15.446;2022-12-18T08:59:52;9.35;;;7.75;;
7162;SDS011;3623;47.098;15.446;2022-12-18T09:02:19;9.85;;;8.43;;
7162;SDS011;3623;47.098;15.446;2022-12-18T09:04:46;10.60;;;8.07;;
7162;SDS011;3623;47.098;15.446;2022-12-18T09:07:13;7.90;;;7.00;;
7162;SDS011;3623;47.098;15.446;2022-12-18T09:09:42;8.77;;;7.07;;
7162;SDS011;3623;47.098;15.446;2022-12-18T09:12:09;10.88;;;8.27;;
7162;SDS011;3623;47.098;15.446;2022-12-18T09:14:36;8.95;;;7.65;;
7162;SDS011;3623;47.098;15.446;2022-12-18T09:17:04;11.65;;;8.50;;
7162;SDS011;3623;47.098;15.446;2022-12-18T09:19:31;8.38;;;7.40;;
7162;SDS011;3623;47.098;15.446;2022-12-18T09:21:58;12.02;;;9.65;;
7162;SDS011;3623;47.098;15.446;2022-12-18T09:24:25;8.63;;;7.72;;
7162;SDS011;3623;47.098;15.446;2022-12-18T09:26:54;10.75;;;8.05;;
7162;SDS011;3623;47.098;15.446;2022-12-18T09:29:21;8.80;;;7.88;;
7162;SDS011;3623;47.098;15.446;2022-12-18T09:31:48;11.95;;;8.55;;
7162;SDS011;3623;47.098;15.446;2022-12-18T09:34:15;9.15;;;8.18;;
7162;SDS011;3623;47.098;15.446;2022-12-18T09:36:42;17.90;;;10.30;;
7162;SDS011;3623;47.098;15.446;2022-12-18T09:39:10;12.68;;;8.20;;
7162;SDS011;3623;47.098;15.446;2022-12-18T09:41:41;13.52;;;9.10;;
7162;SDS011;3623;47.098;15.446;2022-12-18T09:44:15;11.88;;;7.43;;
7162;SDS011;3623;47.098;15.446;2022-12-18T09:46:47;10.45;;;8.10;;
7162;SDS011;3623;47.098;15.446;2022-12-18T09:49:18;10.48;;;8.65;;
7162;SDS011;3623;47.098;15.446;2022-12-18T09:51:49;12.13;;;8.55;;
7162;SDS011;3623;47.098;15.446;2022-12-18T09:54:21;10.98;;;8.35;;
7162;SDS011;3623;47.098;15.446;2022-12-18T09:56:52;14.13;;;9.88;;
7162;SDS011;3623;47.098;15.446;2022-12-18T09:59:25;16.95;;;9.95;;
7162;SDS011;3623;47.098;15.446;2022-12-18T10:01:57;11.98;;;9.95;;
7162;SDS011;3623;47.098;15.446;2022-12-18T10:04:24;17.00;;;12.18;;
7162;SDS011;3623;47.098;15.446;2022-12-18T10:06:54;16.23;;;10.18;;
7162;SDS011;3623;47.098;15.446;2022-12-18T10:09:28;12.68;;;10.20;;
7162;SDS011;3623;47.098;15.446;2022-12-18T10:12:02;19.25;;;11.05;;
7162;SDS011;3623;47.098;15.446;2022-12-18T10:14:39;13.63;;;10.23;;
7162;SDS011;3623;47.098;15.446;2022-12-18T10:17:14;20.55;;;9.23;;
7162;SDS011;3623;47.098;15.446;2022-12-18T10:19:49;10.68;;;9.40;;
7162;SDS011;3623;47.098;15.446;2022-12-18T10:22:23;14.73;;;10.20;;
7162;SDS011;3623;47.098;15.446;2022-12-18T10:25:03;12.98;;;10.85;;
7162;SDS011;3623;47.098;15.446;2022-12-18T10:27:36;14.90;;;12.73;;
7162;SDS011;3623;47.098;15.446;2022-12-18T10:30:07;15.45;;;13.20;;
7162;SDS011;3623;47.098;15.446;2022-12-18T10:32:40;18.38;;;12.70;;
7162;SDS011;3623;47.098;15.446;2022-12-18T10:35:08;18.73;;;14.35;;
7162;SDS011;3623;47.098;15.446;2022-12-18T10:37:58;20.05;;;13.55;;
7162;SDS011;3623;47.098;15.446;2022-12-18T10:40:27;18.33;;;13.40;;
7162;SDS011;3623;47.098;15.446;2022-12-18T10:43:04;17.50;;;14.32;;
7162;SDS011;3623;47.098;15.446;2022-12-18T10:45:38;17.92;;;13.82;;
7162;SDS011;3623;47.098;15.446;2022-12-18T10:48:16;27.25;;;14.77;;
7162;SDS011;3623;47.098;15.446;2022-12-18T10:50:46;18.38;;;15.20;;
7162;SDS011;3623;47.098;15.446;2022-12-18T10:53:18;18.10;;;14.10;;
7162;SDS011;3623;47.098;15.446;2022-12-18T10:55:47;24.30;;;15.65;;
7162;SDS011;3623;47.098;15.446;2022-12-18T10:58:20;17.27;;;14.75;;
7162;SDS011;3623;47.098;15.446;2022-12-18T11:01:11;18.70;;;15.75;;
7162;SDS011;3623;47.098;15.446;2022-12-18T11:03:39;23.90;;;17.40;;
7162;SDS011;3623;47.098;15.446;2022-12-18T11:06:09;24.15;;;18.55;;
7162;SDS011;3623;47.098;15.446;2022-12-18T11:08:37;20.85;;;16.63;;
7162;SDS011;3623;47.098;15.446;2022-12-18T11:11:07;19.55;;;14.95;;
7162;SDS011;3623;47.098;15.446;2022-12-18T11:13:42;24.92;;;17.27;;
7162;SDS011;3623;47.098;15.446;2022-12-18T11:16:28;23.58;;;17.25;;
7162;SDS011;3623;47.098;15.446;2022-12-18T11:19:20;27.42;;;18.17;;
7162;SDS011;3623;47.098;15.446;2022-12-18T11:21:51;25.85;;;17.83;;
7162;SDS011;3623;47.098;15.446;2022-12-18T11:24:19;26.33;;;19.98;;
7162;SDS011;3623;47.098;15.446;2022-12-18T11:26:49;34.00;;;21.25;;
7162;SDS011;3623;47.098;15.446;2022-12-18T11:29:17;23.60;;;18.00;;
7162;SDS011;3623;47.098;15.446;2022-12-18T11:31:51;24.65;;;19.10;;
7162;SDS011;3623;47.098;15.446;2022-12-18T11:34:19;27.60;;;18.83;;
7162;SDS011;3623;47.098;15.446;2022-12-18T11:36:51;24.98;;;18.27;;
7162;SDS011;3623;47.098;15.446;2022-12-18T11:39:20;24.33;;;17.15;;
7162;SDS011;3623;47.098;15.446;2022-12-18T11:41:53;21.63;;;17.10;;
7162;SDS011;3623;47.098;15.446;2022-12-18T11:44:42;26.88;;;17.52;;
7162;SDS011;3623;47.098;15.446;2022-12-18T11:47:18;25.20;;;18.45;;
7162;SDS011;3623;47.098;15.446;2022-12-18T11:49:51;27.20;;;18.02;;
7162;SDS011;3623;47.098;15.446;2022-12-18T11:52:23;26.40;;;17.40;;
7162;SDS011;3623;47.098;15.446;2022-12-18T11:54:53;28.08;;;18.50;;
7162;SDS011;3623;47.098;15.446;2022-12-18T11:57:28;22.65;;;17.00;;
7162;SDS011;3623;47.098;15.446;2022-12-18T12:00:03;27.83;;;18.45;;
7162;SDS011;3623;47.098;15.446;2022-12-18T12:02:41;23.95;;;17.98;;
7162;SDS011;3623;47.098;15.446;2022-12-18T12:05:20;29.98;;;19.58;;
7162;SDS011;3623;47.098;15.446;2022-12-18T12:07:58;28.80;;;18.58;;
7162;SDS011;3623;47.098;15.446;2022-12-18T12:10:37;22.30;;;16.13;;
7162;SDS011;3623;47.098;15.446;2022-12-18T12:13:17;23.80;;;16.92;;
7162;SDS011;3623;47.098;15.446;2022-12-18T12:15:54;30.73;;;18.90;;
7162;SDS011;3623;47.098;15.446;2022-12-18T12:18:34;27.25;;;17.83;;
7162;SDS011;3623;47.098;15.446;2022-12-18T12:21:14;30.50;;;18.23;;
7162;SDS011;3623;47.098;15.446;2022-12-18T12:23:48;28.55;;;18.70;;
7162;SDS011;3623;47.098;15.446;2022-12-18T12:26:22;28.40;;;18.80;;
7162;SDS011;3623;47.098;15.446;2022-12-18T12:28:57;29.98;;;20.70;;
7162;SDS011;3623;47.098;15.446;2022-12-18T12:31:39;29.40;;;18.20;;
7162;SDS011;3623;47.098;15.446;2022-12-18T12:34:31;25.77;;;18.80;;
7162;SDS011;3623;47.098;15.446;2022-12-18T12:37:08;29.20;;;18.55;;
7162;SDS011;3623;47.098;15.446;2022-12-18T12:39:47;24.33;;;17.70;;
7162;SDS011;3623;47.098;15.446;2022-12-18T12:42:16;29.55;;;19.27;;
7162;SDS011;3623;47.098;15.446;2022-12-18T12:45:05;28.30;;;18.83;;
7162;SDS011;3623;47.098;15.446;2022-12-18T12:47:41;26.85;;;19.30;;
7162;SDS011;3623;47.098;15.446;2022-12-18T12:50:14;29.27;;;18.92;;
7162;SDS011;3623;47.098;15.446;2022-12-18T12:52:44;24.13;;;17.73;;
7162;SDS011;3623;47.098;15.446;2022-12-18T12:55:14;23.30;;;18.80;;
7162;SDS011;3623;47.098;15.446;2022-12-18T12:57:45;29.95;;;19.13;;
7162;SDS011;3623;47.098;15.446;2022-12-18T13:00:18;32.75;;;22.00;;
7162;SDS011;3623;47.098;15.446;2022-12-18T13:02:47;23.50;;;18.85;;
7162;SDS011;3623;47.098;15.446;2022-12-18T13:05:23;94.50;;;26.50;;
7162;SDS011;3623;47.098;15.446;2022-12-18T13:07:55;32.45;;;20.98;;
7162;SDS011;3623;47.098;15.446;2022-12-18T13:10:32;40.67;;;22.42;;
7162;SDS011;3623;47.098;15.446;2022-12-18T13:13:05;36.13;;;20.45;;
7162;SDS011;3623;47.098;15.446;2022-12-18T13:15:33;32.10;;;20.13;;
7162;SDS011;3623;47.098;15.446;2022-12-18T13:21:03;36.70;;;20.70;;
7162;SDS011;3623;47.098;15.446;2022-12-18T13:23:43;39.28;;;24.02;;
7162;SDS011;3623;47.098;15.446;2022-12-18T13:29:01;33.58;;;21.23;;
7162;SDS011;3623;47.098;15.446;2022-12-18T13:34:35;35.28;;;21.40;;
7162;SDS011;3623;47.098;15.446;2022-12-18T13:43:28;34.72;;;19.83;;
7162;SDS011;3623;47.098;15.446;2022-12-18T13:45:59;37.08;;;20.08;;
7162;SDS011;3623;47.098;15.446;2022-12-18T13:48:32;37.00;;;21.08;;
7162;SDS011;3623;47.098;15.446;2022-12-18T13:51:03;39.80;;;22.23;;
7162;SDS011;3623;47.098;15.446;2022-12-18T13:53:46;33.72;;;19.85;;
7162;SDS011;3623;47.098;15.446;2022-12-18T13:56:16;36.65;;;22.65;;
7162;SDS011;3623;47.098;15.446;2022-12-18T13:59:03;36.92;;;22.17;;
7162;SDS011;3623;47.098;15.446;2022-12-18T14:01:41;31.67;;;20.95;;
7162;SDS011;3623;47.098;15.446;2022-12-18T14:04:09;36.40;;;21.20;;
7162;SDS011;3623;47.098;15.446;2022-12-18T14:06:38;43.10;;;21.55;;
7162;SDS011;3623;47.098;15.446;2022-12-18T14:09:08;40.08;;;22.02;;
7162;SDS011;3623;47.098;15.446;2022-12-18T14:11:39;34.83;;;20.95;;
7162;SDS011;3623;47.098;15.446;2022-12-18T14:14:07;37.75;;;18.67;;
7162;SDS011;3623;47.098;15.446;2022-12-18T14:16:34;36.80;;;19.88;;
7162;SDS011;3623;47.098;15.446;2022-12-18T14:19:03;35.65;;;20.38;;
7162;SDS011;3623;47.098;15.446;2022-12-18T14:21:32;37.17;;;21.55;;
7162;SDS011;3623;47.098;15.446;2022-12-18T14:24:04;34.95;;;21.20;;
7162;SDS011;3623;47.098;15.446;2022-12-18T14:26:39;38.53;;;21.70;;
7162;SDS011;3623;47.098;15.446;2022-12-18T14:29:23;47.92;;;24.05;;
7162;SDS011;3623;47.098;15.446;2022-12-18T14:32:04;38.55;;;22.23;;
7162;SDS011;3623;47.098;15.446;2022-12-18T14:34:33;38.83;;;20.50;;
7162;SDS011;3623;47.098;15.446;2022-12-18T14:37:00;45.28;;;23.13;;
7162;SDS011;3623;47.098;15.446;2022-12-18T14:39:29;42.92;;;19.83;;
7162;SDS011;3623;47.098;15.446;2022-12-18T14:41:56;46.70;;;22.65;;
7162;SDS011;3623;47.098;15.446;2022-12-18T14:44:23;38.03;;;21.13;;
7162;SDS011;3623;47.098;15.446;2022-12-18T14:46:50;34.15;;;20.30;;
7162;SDS011;3623;47.098;15.446;2022-12-18T14:49:19;42.17;;;22.58;;
7162;SDS011;3623;47.098;15.446;2022-12-18T14:51:52;48.05;;;24.92;;
7162;SDS011;3623;47.098;15.446;2022-12-18T14:54:20;43.78;;;22.25;;
7162;SDS011;3623;47.098;15.446;2022-12-18T14:56:50;36.42;;;20.63;;
7162;SDS011;3623;47.098;15.446;2022-12-18T14:59:21;37.60;;;20.05;;
7162;SDS011;3623;47.098;15.446;2022-12-18T15:01:54;40.67;;;22.17;;
7162;SDS011;3623;47.098;15.446;2022-12-18T15:04:25;40.10;;;22.60;;
7162;SDS011;3623;47.098;15.446;2022-12-18T15:10:00;42.70;;;21.92;;
7162;SDS011;3623;47.098;15.446;2022-12-18T15:12:34;40.72;;;21.25;;
7162;SDS011;3623;47.098;15.446;2022-12-18T15:15:02;45.00;;;21.25;;
7162;SDS011;3623;47.098;15.446;2022-12-18T15:17:30;37.95;;;22.08;;
7162;SDS011;3623;47.098;15.446;2022-12-18T15:19:58;37.35;;;21.60;;
7162;SDS011;3623;47.098;15.446;2022-12-18T15:22:28;39.28;;;22.67;;
7162;SDS011;3623;47.098;15.446;2022-12-18T15:24:56;42.08;;;21.70;;
7162;SDS011;3623;47.098;15.446;2022-12-18T15:27:26;38.15;;;22.60;;
7162;SDS011;3623;47.098;15.446;2022-12-18T15:30:15;38.75;;;22.02;;